createdAt,value
2022-10-15T00:01:14.787Z,58.43
2022-10-15T00:03:44.434Z,52.87
2022-10-15T00:06:18.156Z,50.00
2022-10-15T00:08:46.259Z,58.37
2022-10-15T00:11:19.161Z,58.23
2022-10-15T00:13:47.138Z,58.37
2022-10-15T00:16:20.230Z,56.03
2022-10-15T00:18:48.193Z,56.57
2022-10-15T00:21:18.056Z,62.83
2022-10-15T00:23:46.397Z,56.70
2022-10-15T00:26:20.085Z,58.40
2022-10-15T00:28:49.920Z,58.13
2022-10-15T00:31:20.170Z,59.93
2022-10-15T00:33:49.543Z,57.30
2022-10-15T00:36:19.296Z,58.07
2022-10-15T00:38:46.495Z,55.80
2022-10-15T00:41:17.032Z,60.50
2022-10-15T00:43:50.360Z,58.30
2022-10-15T00:46:40.610Z,64.90
2022-10-15T00:49:31.282Z,65.97
2022-10-15T00:52:14.283Z,63.40
2022-10-15T00:54:54.885Z,67.43
2022-10-15T00:57:22.360Z,67.07
2022-10-15T00:59:54.251Z,70.10
2022-10-15T01:02:21.967Z,69.87
2022-10-15T01:04:49.818Z,77.87
2022-10-15T01:09:48.866Z,72.83
2022-10-15T01:12:25.443Z,69.73
2022-10-15T01:15:15.534Z,69.27
2022-10-15T01:18:12.433Z,76.50
2022-10-15T01:20:52.111Z,71.00
2022-10-15T01:24:01.054Z,65.03
2022-10-15T01:26:36.901Z,67.70
2022-10-15T01:29:41.160Z,62.67
2022-10-15T01:32:24.146Z,62.73
2022-10-15T01:34:59.699Z,82.00
2022-10-15T01:37:59.768Z,69.10
2022-10-15T01:40:51.867Z,87.87
2022-10-15T01:43:29.032Z,84.63
2022-10-15T01:46:02.078Z,85.43
2022-10-15T01:48:31.683Z,87.80
2022-10-15T01:51:02.267Z,74.97
2022-10-15T01:53:31.075Z,70.20
2022-10-15T01:56:09.803Z,60.50
2022-10-15T01:58:44.785Z,78.67
2022-10-15T02:01:11.881Z,71.77
2022-10-15T02:03:50.965Z,89.73
2022-10-15T02:06:44.313Z,86.20
2022-10-15T02:09:21.444Z,60.03
2022-10-15T02:12:18.034Z,65.80
2022-10-15T02:14:54.986Z,65.90
2022-10-15T02:17:32.106Z,74.20
2022-10-15T02:20:20.009Z,58.83
2022-10-15T02:22:55.624Z,68.10
2022-10-15T02:25:25.767Z,66.03
2022-10-15T02:27:55.408Z,64.20
2022-10-15T02:30:23.087Z,55.43
2022-10-15T02:32:58.544Z,61.73
2022-10-15T02:35:27.476Z,62.33
2022-10-15T02:37:58.635Z,74.90
2022-10-15T02:40:28.988Z,73.50
2022-10-15T02:42:56.319Z,55.43
2022-10-15T02:45:23.343Z,81.17
2022-10-15T02:47:50.380Z,91.10
2022-10-15T02:50:17.671Z,147.37
2022-10-15T02:52:45.718Z,110.30
2022-10-15T02:55:12.767Z,94.67
2022-10-15T02:57:39.979Z,106.30
2022-10-15T03:00:07.655Z,75.83
2022-10-15T03:02:34.763Z,72.37
2022-10-15T03:05:01.898Z,76.40
2022-10-15T03:07:28.934Z,55.67
2022-10-15T03:09:56.413Z,86.23
2022-10-15T03:12:25.973Z,77.50
2022-10-15T03:14:53.441Z,72.27
2022-10-15T03:17:20.503Z,78.53
2022-10-15T03:19:47.839Z,60.13
2022-10-15T03:22:14.902Z,68.97
2022-10-15T03:24:41.883Z,63.10
2022-10-15T03:27:09.224Z,76.87
2022-10-15T03:29:36.280Z,67.17
2022-10-15T03:32:04.706Z,56.80
2022-10-15T03:34:31.894Z,77.00
2022-10-15T03:36:58.937Z,52.67
2022-10-15T03:39:25.943Z,69.07
2022-10-15T03:41:54.088Z,59.27
2022-10-15T03:44:21.095Z,60.23
2022-10-15T03:46:48.047Z,53.63
2022-10-15T03:49:15.266Z,57.33
2022-10-15T03:51:42.250Z,65.30
2022-10-15T03:54:09.506Z,57.43
2022-10-15T03:56:36.822Z,56.53
2022-10-15T03:59:03.759Z,47.80
2022-10-15T04:01:31.160Z,63.20
2022-10-15T04:03:58.364Z,62.37
2022-10-15T04:06:25.471Z,69.00
2022-10-15T04:11:24.518Z,63.40
2022-10-15T04:13:51.501Z,51.93
2022-10-15T04:16:18.472Z,53.73
2022-10-15T04:18:45.766Z,63.87
2022-10-15T04:21:12.809Z,52.90
2022-10-15T04:23:39.766Z,63.80
2022-10-15T04:26:07.244Z,55.63
2022-10-15T04:28:34.977Z,50.40
2022-10-15T04:31:02.444Z,60.13
2022-10-15T04:33:29.637Z,65.23
2022-10-15T04:36:05.949Z,59.23
2022-10-15T04:38:33.458Z,69.60
2022-10-15T04:41:06.934Z,62.53
2022-10-15T04:43:34.857Z,56.33
2022-10-15T04:46:03.643Z,66.60
2022-10-15T04:48:33.255Z,57.20
2022-10-15T04:51:12.631Z,57.33
2022-10-15T04:53:39.710Z,58.40
2022-10-15T04:56:10.364Z,60.67
2022-10-15T04:58:37.553Z,56.07
2022-10-15T05:01:07.910Z,53.53
2022-10-15T05:03:38.434Z,54.20
2022-10-15T05:06:12.799Z,56.40
2022-10-15T05:08:43.450Z,56.23
2022-10-15T05:11:16.183Z,51.73
2022-10-15T05:13:43.477Z,52.50
2022-10-15T05:16:13.254Z,55.33
2022-10-15T05:18:41.458Z,62.97
2022-10-15T05:21:09.214Z,51.23
2022-10-15T05:23:37.013Z,53.60
2022-10-15T05:26:06.480Z,59.93
2022-10-15T05:28:34.473Z,54.20
2022-10-15T05:31:17.512Z,61.93
2022-10-15T05:33:46.847Z,59.47
2022-10-15T05:36:28.347Z,53.00
2022-10-15T05:39:00.568Z,66.33
2022-10-15T05:41:28.222Z,65.07
2022-10-15T05:43:57.697Z,55.93
2022-10-15T05:46:25.144Z,56.10
2022-10-15T05:48:54.008Z,57.27
2022-10-15T05:51:21.724Z,64.83
2022-10-15T05:53:52.531Z,59.80
2022-10-15T05:56:19.618Z,60.10
2022-10-15T05:58:46.718Z,63.37
2022-10-15T06:01:14.428Z,57.80
2022-10-15T06:03:42.234Z,58.17
2022-10-15T06:06:20.078Z,57.27
2022-10-15T06:08:48.066Z,58.53
2022-10-15T06:11:15.935Z,59.97
2022-10-15T06:13:44.119Z,51.43
2022-10-15T06:16:13.300Z,66.40
2022-10-15T06:18:41.013Z,53.43
2022-10-15T06:21:12.281Z,58.00
2022-10-15T06:23:39.543Z,66.77
2022-10-15T06:26:08.876Z,64.27
2022-10-15T06:28:36.791Z,60.50
2022-10-15T06:31:04.604Z,58.87
2022-10-15T06:33:32.872Z,59.47
2022-10-15T06:36:08.060Z,57.70
2022-10-15T06:38:35.926Z,61.00
2022-10-15T06:41:07.719Z,62.13
2022-10-15T06:43:35.503Z,64.13
2022-10-15T06:46:04.556Z,65.27
2022-10-15T06:48:32.711Z,61.27
2022-10-15T06:51:01.006Z,54.07
2022-10-15T06:53:29.827Z,51.90
2022-10-15T06:56:01.618Z,47.17
2022-10-15T06:58:28.839Z,42.43
2022-10-15T07:01:06.555Z,43.90
2022-10-15T07:03:33.784Z,46.43
2022-10-15T07:06:06.279Z,38.33
2022-10-15T07:08:34.089Z,38.77
2022-10-15T07:11:03.261Z,43.20
2022-10-15T07:13:30.831Z,45.03
2022-10-15T07:15:57.949Z,40.40
2022-10-15T07:18:25.143Z,41.73
2022-10-15T07:20:52.274Z,45.50
2022-10-15T07:23:21.767Z,47.37
2022-10-15T07:25:50.060Z,40.00
2022-10-15T07:28:17.352Z,40.93
2022-10-15T07:30:44.484Z,39.83
2022-10-15T07:33:11.670Z,39.77
2022-10-15T07:35:39.050Z,38.70
2022-10-15T07:38:06.010Z,41.70
2022-10-15T07:40:33.335Z,38.27
2022-10-15T07:43:00.504Z,42.70
2022-10-15T07:45:28.030Z,40.10
2022-10-15T07:47:55.278Z,41.20
2022-10-15T07:50:22.675Z,37.03
2022-10-15T07:52:50.000Z,39.77
2022-10-15T07:55:17.439Z,38.80
2022-10-15T07:57:44.573Z,37.63
2022-10-15T08:00:12.125Z,40.63
2022-10-15T08:02:40.154Z,39.93
2022-10-15T08:05:07.590Z,39.57
2022-10-15T08:07:34.732Z,41.23
2022-10-15T08:10:02.130Z,41.93
2022-10-15T08:12:29.491Z,38.00
2022-10-15T08:14:56.655Z,38.37
2022-10-15T08:17:23.651Z,39.97
2022-10-15T08:19:50.980Z,39.87
2022-10-15T08:22:18.054Z,39.17
2022-10-15T08:24:45.340Z,40.07
2022-10-15T08:27:12.307Z,40.17
2022-10-15T08:29:39.493Z,35.27
2022-10-15T08:32:06.618Z,38.83
2022-10-15T08:34:33.647Z,38.90
2022-10-15T08:37:00.906Z,41.10
2022-10-15T08:39:27.999Z,38.03
2022-10-15T08:42:01.300Z,39.47
2022-10-15T08:44:32.215Z,38.97
2022-10-15T08:47:01.601Z,36.20
2022-10-15T08:49:54.603Z,37.90
2022-10-15T08:52:29.267Z,31.80
2022-10-15T08:55:01.207Z,37.17
2022-10-15T08:58:14.390Z,34.57
2022-10-15T09:00:51.708Z,32.37
2022-10-15T09:03:39.999Z,34.20
2022-10-15T09:06:15.542Z,33.43
2022-10-15T09:08:54.172Z,28.77
2022-10-15T09:11:26.903Z,31.97
2022-10-15T09:13:55.122Z,35.23
2022-10-15T09:16:28.754Z,34.57
2022-10-15T09:18:58.441Z,28.70
2022-10-15T09:21:26.056Z,32.87
2022-10-15T09:23:58.516Z,33.30
2022-10-15T09:26:28.348Z,32.00
2022-10-15T09:29:19.093Z,31.07
2022-10-15T09:31:55.562Z,30.80
2022-10-15T09:34:29.746Z,30.70
2022-10-15T09:37:07.968Z,32.13
2022-10-15T09:39:47.972Z,25.50
2022-10-15T09:42:27.210Z,35.93
2022-10-15T09:44:56.897Z,31.60
2022-10-15T09:47:33.292Z,26.83
2022-10-15T09:50:01.546Z,29.17
2022-10-15T09:52:53.094Z,26.77
2022-10-15T09:55:38.643Z,30.20
2022-10-15T09:58:26.509Z,25.93
2022-10-15T10:01:05.746Z,28.20
2022-10-15T10:03:34.808Z,24.23
2022-10-15T10:06:08.960Z,25.53
2022-10-15T10:08:40.364Z,26.43
2022-10-15T10:11:11.341Z,26.77
2022-10-15T10:13:59.386Z,28.80
2022-10-15T10:16:30.126Z,25.70
2022-10-15T10:19:05.970Z,26.57
2022-10-15T10:21:39.412Z,26.13
2022-10-15T10:24:19.742Z,24.80
2022-10-15T10:26:48.323Z,26.70
2022-10-15T10:29:33.600Z,26.70
2022-10-15T10:32:09.504Z,27.80
2022-10-15T10:34:36.715Z,24.70
2022-10-15T10:37:05.073Z,21.40
2022-10-15T10:39:34.872Z,26.20
2022-10-15T10:42:06.063Z,26.40
2022-10-15T10:44:40.043Z,24.80
2022-10-15T10:47:20.413Z,21.93
2022-10-15T10:49:52.910Z,22.67
2022-10-15T10:52:37.506Z,22.20
2022-10-15T10:55:26.765Z,20.17
2022-10-15T10:57:55.274Z,26.30
2022-10-15T11:00:45.774Z,20.83
2022-10-15T11:03:31.925Z,19.13
2022-10-15T11:06:19.867Z,21.07
2022-10-15T11:08:52.883Z,20.57
2022-10-15T11:11:32.142Z,20.00
2022-10-15T11:14:20.644Z,18.33
2022-10-15T11:17:28.559Z,21.17
2022-10-15T11:20:31.294Z,21.53
2022-10-15T11:23:38.733Z,18.03
2022-10-15T11:26:24.281Z,19.23
2022-10-15T11:29:12.622Z,17.70
2022-10-15T11:32:02.802Z,19.60
2022-10-15T11:34:52.428Z,20.57
2022-10-15T11:37:37.670Z,18.97
2022-10-15T11:40:32.671Z,18.87
2022-10-15T11:43:24.031Z,22.03
2022-10-15T11:46:05.261Z,19.37
2022-10-15T11:48:53.943Z,18.27
2022-10-15T11:51:34.151Z,16.80
2022-10-15T11:57:25.493Z,18.73
2022-10-15T12:00:26.459Z,20.13
2022-10-15T12:02:55.957Z,22.60
2022-10-15T12:05:35.111Z,19.80
2022-10-15T12:33:55.859Z,17.07
2022-10-15T12:36:31.091Z,19.07
2022-10-15T12:39:16.120Z,17.17
2022-10-15T12:41:54.786Z,17.00
2022-10-15T12:44:35.715Z,17.57
2022-10-15T12:47:03.605Z,21.07
2022-10-15T12:49:31.057Z,17.07
2022-10-15T12:52:02.931Z,18.20
2022-10-15T12:54:43.758Z,19.00
2022-10-15T12:57:34.586Z,27.10
2022-10-15T13:00:22.213Z,17.90
2022-10-15T13:02:50.603Z,18.00
2022-10-15T13:05:28.784Z,16.47
2022-10-15T13:07:57.739Z,21.00
2022-10-15T13:10:37.800Z,19.10
2022-10-15T13:13:07.792Z,18.77
2022-10-15T13:15:35.279Z,18.60
2022-10-15T13:18:09.054Z,18.67
2022-10-15T13:20:45.381Z,19.87
2022-10-15T13:23:31.050Z,19.57
2022-10-15T13:26:21.095Z,18.90
2022-10-15T13:28:52.985Z,17.07
2022-10-15T13:31:31.839Z,23.80
2022-10-15T13:34:24.209Z,16.23
2022-10-15T13:36:52.842Z,17.13
2022-10-15T13:39:40.047Z,18.30
2022-10-15T13:42:16.728Z,22.87
2022-10-15T13:45:19.366Z,18.87
2022-10-15T13:47:51.931Z,21.83
2022-10-15T13:50:27.711Z,18.30
2022-10-15T13:52:57.549Z,16.03
2022-10-15T13:55:25.826Z,18.57
2022-10-15T13:58:03.304Z,20.17
2022-10-15T14:00:36.641Z,17.90
2022-10-15T14:03:18.898Z,18.67
2022-10-15T14:05:48.019Z,18.03
2022-10-15T14:08:33.030Z,20.57
2022-10-15T14:11:00.646Z,21.20
2022-10-15T14:13:28.260Z,19.10
2022-10-15T14:16:15.481Z,21.33
2022-10-15T14:18:49.140Z,18.07
2022-10-15T14:21:21.091Z,21.33
2022-10-15T14:23:49.498Z,22.40
2022-10-15T14:26:24.414Z,16.73
2022-10-15T14:28:52.308Z,16.40
2022-10-15T14:31:47.006Z,20.40
2022-10-15T14:34:35.834Z,17.60
2022-10-15T14:37:24.262Z,18.67
2022-10-15T14:40:02.109Z,19.27
2022-10-15T14:42:32.819Z,19.37
2022-10-15T14:45:20.390Z,19.33
2022-10-15T14:47:53.856Z,21.40
2022-10-15T14:50:25.611Z,20.87
2022-10-15T14:52:54.704Z,17.93
2022-10-15T14:55:24.494Z,18.87
2022-10-15T14:57:52.426Z,21.77
2022-10-15T15:00:39.137Z,18.63
2022-10-15T15:03:07.460Z,21.40
2022-10-15T15:05:46.746Z,17.67
2022-10-15T15:08:14.366Z,20.87
2022-10-15T15:10:42.372Z,19.03
2022-10-15T15:13:17.126Z,19.33
2022-10-15T15:15:44.063Z,20.30
2022-10-15T15:18:11.812Z,17.73
2022-10-15T15:20:40.795Z,18.80
2022-10-15T15:23:12.837Z,21.83
2022-10-15T15:25:40.193Z,20.97
2022-10-15T15:28:15.857Z,20.53
2022-10-15T15:30:44.760Z,19.93
2022-10-15T15:33:16.083Z,20.33
2022-10-15T15:35:52.579Z,20.13
2022-10-15T15:38:30.900Z,23.43
2022-10-15T15:41:15.718Z,19.40
2022-10-15T15:43:43.587Z,20.40
2022-10-15T15:46:10.799Z,22.33
2022-10-15T15:48:38.203Z,19.17
2022-10-15T15:51:11.452Z,21.50
2022-10-15T15:53:38.733Z,22.50
2022-10-15T15:56:05.929Z,24.43
2022-10-15T15:58:33.109Z,25.47
2022-10-15T16:01:00.056Z,22.77
2022-10-15T16:03:27.317Z,21.83
2022-10-15T16:05:54.345Z,18.07
2022-10-15T16:08:21.804Z,22.10
2022-10-15T16:10:48.796Z,22.93
2022-10-15T16:13:16.231Z,22.70
2022-10-15T16:15:43.161Z,21.77
2022-10-15T16:18:10.799Z,23.47
2022-10-15T16:20:39.676Z,22.43
2022-10-15T16:23:06.799Z,29.93
2022-10-15T16:25:33.822Z,23.93
2022-10-15T16:28:01.973Z,20.43
2022-10-15T16:30:29.608Z,22.77
2022-10-15T16:32:57.063Z,22.10
2022-10-15T16:35:24.055Z,24.47
2022-10-15T16:37:54.066Z,22.37
2022-10-15T16:40:21.010Z,28.20
2022-10-15T16:42:48.205Z,27.00
2022-10-15T16:45:15.258Z,21.57
2022-10-15T16:47:42.406Z,31.50
2022-10-15T16:50:09.847Z,25.30
2022-10-15T16:52:37.087Z,26.50
2022-10-15T16:55:04.243Z,23.23
2022-10-15T16:57:31.575Z,28.47
2022-10-15T16:59:58.560Z,24.93
2022-10-15T17:02:26.033Z,23.17
2022-10-15T17:04:53.435Z,28.57
2022-10-15T17:07:20.657Z,23.13
2022-10-15T17:12:20.354Z,27.23
2022-10-15T17:14:53.194Z,27.40
2022-10-15T17:17:20.551Z,25.60
2022-10-15T17:19:47.598Z,25.87
2022-10-15T17:22:14.798Z,25.37
2022-10-15T17:24:41.759Z,25.53
2022-10-15T17:27:09.194Z,27.27
2022-10-15T17:29:36.406Z,25.80
2022-10-15T17:32:03.641Z,27.07
2022-10-15T17:34:30.651Z,30.93
2022-10-15T17:37:00.191Z,26.87
2022-10-15T17:39:27.173Z,28.20
2022-10-15T17:41:54.381Z,27.43
2022-10-15T17:44:21.535Z,30.03
2022-10-15T17:49:20.920Z,31.33
2022-10-15T17:51:48.244Z,28.77
2022-10-15T17:54:16.665Z,24.70
2022-10-15T17:56:43.888Z,30.40
2022-10-15T17:59:12.268Z,30.33
2022-10-15T18:01:58.832Z,30.90
2022-10-15T18:04:30.663Z,29.50
2022-10-15T18:06:57.963Z,28.27
2022-10-15T18:09:26.894Z,30.53
2022-10-15T18:11:54.088Z,29.47
2022-10-15T18:14:21.718Z,26.47
2022-10-15T18:16:49.701Z,36.97
2022-10-15T18:19:16.694Z,30.00
2022-10-15T18:21:49.506Z,31.47
2022-10-15T18:24:21.425Z,28.27
2022-10-15T18:26:50.108Z,31.77
2022-10-15T18:29:17.306Z,29.67
2022-10-15T18:31:44.567Z,29.03
2022-10-15T18:34:11.526Z,30.37
2022-10-15T18:36:41.550Z,32.03
2022-10-15T18:39:08.523Z,27.67
2022-10-15T18:41:37.442Z,28.87
2022-10-15T18:44:07.807Z,26.47
2022-10-15T18:46:35.498Z,29.80
2022-10-15T18:49:02.974Z,27.47
2022-10-15T18:51:30.819Z,26.53
2022-10-15T18:54:00.072Z,33.63
2022-10-15T18:56:28.006Z,27.40
2022-10-15T18:58:55.326Z,28.63
2022-10-15T19:01:37.217Z,30.33
2022-10-15T19:04:07.394Z,25.93
2022-10-15T19:06:37.691Z,28.67
2022-10-15T19:09:06.864Z,28.03
2022-10-15T19:11:35.026Z,35.57
2022-10-15T19:14:02.035Z,28.97
2022-10-15T19:16:29.271Z,27.90
2022-10-15T19:18:56.629Z,28.43
2022-10-15T19:21:24.020Z,30.60
2022-10-15T19:23:50.944Z,30.37
2022-10-15T19:26:18.335Z,27.83
2022-10-15T19:28:46.896Z,26.20
2022-10-15T19:31:27.464Z,34.57
2022-10-15T19:33:55.381Z,28.97
2022-10-15T19:36:25.592Z,28.03
2022-10-15T19:38:52.874Z,28.13
2022-10-15T19:41:20.488Z,27.37
2022-10-15T19:43:47.851Z,29.47
2022-10-15T19:46:15.476Z,31.20
2022-10-15T19:48:42.421Z,28.40
2022-10-15T19:51:09.611Z,24.83
2022-10-15T19:53:36.624Z,27.00
2022-10-15T19:56:06.872Z,28.80
2022-10-15T19:58:34.588Z,28.50
2022-10-15T20:01:02.601Z,27.60
2022-10-15T20:03:31.344Z,28.50
2022-10-15T20:05:58.546Z,23.00
2022-10-15T20:08:26.119Z,28.63
2022-10-15T20:10:53.731Z,28.90
2022-10-15T20:13:22.989Z,34.17
2022-10-15T20:15:52.432Z,24.13
2022-10-15T20:18:21.103Z,22.97
2022-10-15T20:20:48.727Z,26.57
2022-10-15T20:23:16.570Z,26.07
2022-10-15T20:25:44.467Z,30.20
2022-10-15T20:28:13.599Z,25.53
2022-10-15T20:30:41.761Z,26.63
2022-10-15T20:33:10.187Z,26.33
2022-10-15T20:35:38.384Z,24.70
2022-10-15T20:38:06.643Z,29.20
2022-10-15T20:40:35.514Z,23.63
2022-10-15T20:43:02.451Z,27.40
2022-10-15T20:45:39.430Z,24.73
2022-10-15T20:48:07.948Z,22.17
2022-10-15T20:50:36.084Z,23.80
2022-10-15T20:53:03.518Z,23.47
2022-10-15T20:55:30.761Z,23.70
2022-10-15T20:57:57.895Z,24.73
2022-10-15T21:00:25.052Z,22.67
2022-10-15T21:02:52.047Z,24.00
2022-10-15T21:05:19.216Z,25.10
2022-10-15T21:07:46.132Z,22.17
2022-10-15T21:10:13.274Z,23.07
2022-10-15T21:12:40.475Z,25.57
2022-10-15T21:15:08.085Z,22.13
2022-10-15T21:17:35.011Z,28.53
2022-10-15T21:20:02.887Z,27.77
2022-10-15T21:22:29.864Z,22.50
2022-10-15T21:24:56.972Z,23.27
2022-10-15T21:27:24.171Z,23.47
2022-10-15T21:29:51.427Z,25.77
2022-10-15T21:32:18.351Z,19.67
2022-10-15T21:34:45.749Z,21.57
2022-10-15T21:37:13.089Z,24.67
2022-10-15T21:39:40.264Z,23.13
2022-10-15T21:42:07.183Z,20.90
2022-10-15T21:44:34.381Z,21.87
2022-10-15T21:47:01.398Z,20.80
2022-10-15T21:49:28.608Z,18.20
2022-10-15T21:51:55.578Z,20.07
2022-10-15T21:54:22.754Z,20.07
2022-10-15T21:56:49.669Z,21.07
2022-10-15T21:59:16.855Z,18.17
2022-10-15T22:01:45.654Z,20.00
2022-10-15T22:04:12.874Z,17.57
2022-10-15T22:06:40.368Z,19.73
2022-10-15T22:09:08.820Z,18.93
2022-10-15T22:11:39.181Z,16.50
2022-10-15T22:14:08.753Z,18.80
2022-10-15T22:16:37.860Z,21.10
2022-10-15T22:19:06.585Z,20.47
2022-10-15T22:21:36.465Z,17.77
2022-10-15T22:24:12.062Z,21.07
2022-10-15T22:26:41.738Z,18.53
2022-10-15T22:29:18.825Z,17.80
2022-10-15T22:31:45.831Z,20.57
2022-10-15T22:34:13.291Z,22.53
2022-10-15T22:36:40.277Z,21.83
2022-10-15T22:39:10.744Z,19.73
2022-10-15T22:41:39.909Z,22.37
2022-10-15T22:44:08.341Z,18.50
2022-10-15T22:46:39.821Z,23.77
2022-10-15T22:49:08.545Z,21.23
2022-10-15T22:51:35.947Z,20.07
2022-10-15T22:54:03.160Z,22.77
2022-10-15T22:56:31.007Z,21.13
2022-10-15T22:58:58.619Z,20.93
2022-10-15T23:01:30.934Z,21.33
2022-10-15T23:04:01.929Z,21.37
2022-10-15T23:06:30.103Z,19.13
2022-10-15T23:08:59.079Z,18.27
2022-10-15T23:11:29.590Z,20.87
2022-10-15T23:14:00.756Z,17.47
2022-10-15T23:16:30.890Z,19.27
2022-10-15T23:19:00.704Z,19.43
2022-10-15T23:21:43.386Z,20.10
2022-10-15T23:24:11.685Z,18.57
2022-10-15T23:26:39.735Z,18.40
2022-10-15T23:29:08.746Z,15.80
2022-10-15T23:31:36.353Z,17.97
2022-10-15T23:34:04.978Z,18.47
2022-10-15T23:36:33.450Z,19.10
2022-10-15T23:39:03.742Z,19.10
2022-10-15T23:41:31.386Z,14.80
2022-10-15T23:43:58.809Z,17.90
2022-10-15T23:46:26.063Z,18.37
2022-10-15T23:48:53.355Z,17.53
2022-10-15T23:51:26.058Z,16.47
2022-10-15T23:53:55.323Z,19.00
2022-10-15T23:56:23.586Z,19.70
2022-10-15T23:58:53.824Z,16.57
